Anthony, Kansas
Current Conditions -  °F | °C
As of 7:30 AM on Monday 24 Nov 2014 (Local Time) from KAVK Reporting Station
Clear Clear  
Wind Chill: 24°   Ceiling: Unl
Heat Index: 32°   Visibility: 10mi
Dew Point: 21°   Wind: 10mph
Humidity: 64%   Direction: 270°W
Pressure: 29.91"   Gusts: 16mph
Location:  37.15°N, 98.03°W
Report Text: KAVK 241330Z AUTO 27009G14KT 10SM CLR 00/M06 A2991 RMK AO2
Loading
Personal Weather Stations






























Interactive Weather Map New forecast layout! Learn more

10-Day Weather Forecast

Advertisements
Track Severe Weather on mobile